Altus AFB, Oklahoma
Current Conditions -  °F | °C
As of 7:23 AM on Friday 24 Oct 2014 (Local Time) from KLTS Reporting Station
Haze Haze  
Wind Chill: 55°   Ceiling: Unl
Heat Index: 55°   Visibility: 6mi
Dew Point: 55°   Wind: 6mph
Humidity: 100%   Direction: 110°ESE
Pressure: 30.08"   Gusts: NA
Location:  34.65°N, 99.28°W
Report Text: KLTS 241223Z AUTO 11005KT 6SM R17R/5000FT BR CLR 13/13 A3008 RMK AO2 $
Loading
Personal Weather Stations






























Interactive Weather Map
Tropical Storm Tracking
New forecast layout! Learn more

10-Day Weather Forecast

Advertisements
Track Severe Weather on mobile